Time;durP1;ratioP1;P1;durP2;ratioP2;P2;SDS_P1;SDS_P2;PMS_P1;PMS_P2;Temp;Humidity;BMP_temperature;BMP_pressure;BME280_temperature;BME280_humidity;BME280_pressure;Samples;Min_cycle;Max_cycle;Signal;HPM_P1;HPM_P2
2022/12/18 00:00:46;;;;;;;6.00;2.05;;;;;;;16.90;100.00;101927.44;2108695;28;20047;-73
2022/12/18 00:02:09;;;;;;;8.25;2.20;;;;;;;16.89;100.00;101930.06;2099832;28;20581;-73
2022/12/18 00:03:34;;;;;;;9.77;2.53;;;;;;;16.89;100.00;101930.97;2101326;28;20068;-74
2022/12/18 00:04:57;;;;;;;10.27;2.42;;;;;;;16.90;100.00;101937.19;2110638;28;20857;-74
2022/12/18 00:06:22;;;;;;;12.25;3.33;;;;;;;16.90;100.00;101931.88;2110822;28;20048;-74
2022/12/18 00:07:46;;;;;;;7.63;2.50;;;;;;;16.90;100.00;101932.75;2104608;28;20419;-75
2022/12/18 00:09:08;;;;;;;9.52;2.70;;;;;;;16.91;100.00;101934.56;2112097;28;20495;-75
2022/12/18 00:10:31;;;;;;;11.73;3.63;;;;;;;16.91;100.00;101934.56;2096385;28;20051;-74
2022/12/18 00:11:53;;;;;;;9.63;2.75;;;;;;;16.93;100.00;101929.25;2107584;28;20047;-74
2022/12/18 00:13:14;;;;;;;11.13;3.60;;;;;;;16.95;100.00;101940.78;2104639;28;20047;-74
2022/12/18 00:14:37;;;;;;;12.68;2.95;;;;;;;16.96;100.00;101934.59;2105089;28;20055;-74
2022/12/18 00:16:02;;;;;;;8.10;2.90;;;;;;;16.97;100.00;101937.28;2105947;28;20112;-75
2022/12/18 00:17:24;;;;;;;8.50;3.33;;;;;;;16.97;100.00;101947.94;2101792;28;20040;-74
2022/12/18 00:18:46;;;;;;;11.40;3.28;;;;;;;16.96;100.00;101938.16;2103397;28;20039;-74
2022/12/18 00:20:09;;;;;;;11.63;3.17;;;;;;;16.95;100.00;101935.47;2110716;28;20060;-73
2022/12/18 00:21:32;;;;;;;13.25;3.63;;;;;;;16.93;100.00;101942.56;2095663;28;20044;-74
2022/12/18 00:22:56;;;;;;;12.00;2.85;;;;;;;16.88;100.00;101939.84;2097956;28;20129;-74
2022/12/18 00:24:19;;;;;;;9.57;2.85;;;;;;;16.87;100.00;101943.38;2109930;28;20062;-74
2022/12/18 00:25:41;;;;;;;9.80;3.00;;;;;;;16.85;100.00;101938.94;2105624;28;20040;-74
2022/12/18 00:27:04;;;;;;;8.88;2.78;;;;;;;16.83;100.00;101932.69;2110169;28;20258;-73
2022/12/18 00:28:25;;;;;;;6.13;2.22;;;;;;;16.82;100.00;101939.78;2087008;28;20053;-74
2022/12/18 00:29:49;;;;;;;12.15;3.45;;;;;;;16.81;100.00;101931.78;2091457;28;20190;-74
2022/12/18 00:31:12;;;;;;;11.35;2.90;;;;;;;16.80;100.00;101935.34;2109696;28;20051;-74
2022/12/18 00:32:34;;;;;;;7.05;2.78;;;;;;;16.80;100.00;101935.34;2112405;28;20093;-73
2022/12/18 00:33:57;;;;;;;12.98;3.30;;;;;;;16.79;100.00;101944.22;2097255;28;20045;-74
2022/12/18 00:35:20;;;;;;;8.63;3.17;;;;;;;16.79;100.00;101938.88;2095094;28;20102;-75
2022/12/18 00:36:43;;;;;;;9.43;3.45;;;;;;;16.78;100.00;101943.31;2099605;28;20048;-74
2022/12/18 00:38:07;;;;;;;9.07;3.28;;;;;;;16.79;100.00;101946.91;2099554;28;20612;-74
2022/12/18 00:39:28;;;;;;;10.73;3.78;;;;;;;16.77;100.00;101940.63;2109429;28;20169;-74
2022/12/18 00:40:51;;;;;;;13.90;3.90;;;;;;;16.74;100.00;101950.38;2110324;28;20047;-74
2022/12/18 00:43:51;;;;;;;13.40;3.72;;;;;;;16.70;100.00;101956.59;2105748;28;20093;-74
2022/12/18 00:45:14;;;;;;;8.23;3.50;;;;;;;16.70;100.00;101951.25;2108722;28;20036;-73
2022/12/18 00:46:35;;;;;;;11.82;3.65;;;;;;;16.69;100.00;101948.56;2096973;28;20751;-73
2022/12/18 00:47:58;;;;;;;13.60;3.92;;;;;;;16.68;100.00;101946.78;2108206;28;20058;-74
2022/12/18 00:49:21;;;;;;;11.95;3.72;;;;;;;16.67;100.00;101951.22;2104771;28;20411;-74
2022/12/18 00:50:44;;;;;;;12.70;4.32;;;;;;;16.66;100.00;101949.44;2096299;28;20081;-74
2022/12/18 00:52:05;;;;;;;15.25;4.03;;;;;;;16.64;100.00;101948.53;2103152;28;20043;-73
2022/12/18 00:53:29;;;;;;;10.65;4.38;;;;;;;16.62;100.00;101947.59;2103613;28;20129;-74
2022/12/18 00:54:52;;;;;;;11.70;4.18;;;;;;;16.60;100.00;101944.06;2101119;28;20047;-74
2022/12/18 00:56:13;;;;;;;8.77;3.58;;;;;;;16.58;100.00;101951.09;2109139;28;20043;-74
2022/12/18 00:57:35;;;;;;;16.30;4.22;;;;;;;16.58;100.00;101950.22;2096716;28;20560;-74
2022/12/18 00:58:58;;;;;;;15.90;3.97;;;;;;;16.55;100.00;101951.06;2107273;28;20545;-73
2022/12/18 01:00:20;;;;;;;13.20;3.80;;;;;;;16.55;100.00;101948.38;2110097;28;20153;-74
2022/12/18 01:01:42;;;;;;;13.05;3.35;;;;;;;16.52;100.00;101948.38;2112854;28;20096;-74
2022/12/18 01:03:05;;;;;;;10.25;2.95;;;;;;;16.49;100.00;101943.00;2109707;28;20039;-74
2022/12/18 01:04:27;;;;;;;6.07;2.75;;;;;;;16.48;100.00;101937.63;2109160;28;20054;-74
2022/12/18 01:05:49;;;;;;;8.27;2.83;;;;;;;16.45;100.00;101943.84;2103007;28;20046;-73
2022/12/18 01:07:12;;;;;;;10.43;3.13;;;;;;;16.45;100.00;101941.19;2104840;28;20105;-74
2022/12/18 01:08:35;;;;;;;7.68;2.50;;;;;;;16.43;100.00;101942.94;2086548;28;20041;-74
2022/12/18 01:09:58;;;;;;;10.68;3.58;;;;;;;16.44;100.00;101930.50;2092994;28;20083;-74
2022/12/18 01:11:21;;;;;;;7.10;2.70;;;;;;;16.43;100.00;101934.94;2103301;28;20051;-74
2022/12/18 01:12:44;;;;;;;9.40;2.60;;;;;;;16.40;100.00;101934.94;2107679;28;20043;-74
2022/12/18 01:14:05;;;;;;;9.55;2.63;;;;;;;16.39;100.00;101933.13;2110701;28;20031;-74
2022/12/18 01:15:28;;;;;;;8.13;3.22;;;;;;;16.38;100.00;101935.78;2103650;28;20055;-76
2022/12/18 01:16:49;;;;;;;13.30;3.50;;;;;;;16.37;100.00;101939.31;2099257;28;20488;-74
2022/12/18 01:18:11;;;;;;;13.57;3.45;;;;;;;16.37;100.00;101934.88;2098174;28;20143;-74
2022/12/18 01:19:34;;;;;;;11.80;3.10;;;;;;;16.37;100.00;101939.31;2102968;28;20377;-74
2022/12/18 01:20:55;;;;;;;9.85;3.65;;;;;;;16.35;100.00;101934.84;2103524;28;20047;-74
2022/12/18 01:22:18;;;;;;;11.63;3.55;;;;;;;16.35;100.00;101937.53;2105747;28;20051;-74
2022/12/18 01:23:41;;;;;;;11.70;3.25;;;;;;;16.35;100.00;101933.97;2100426;28;20082;-74
2022/12/18 01:25:07;;;;;;;9.80;3.17;;;;;;;16.32;100.00;101932.19;2094993;28;20491;-74
2022/12/18 01:26:30;;;;;;;12.73;3.50;;;;;;;16.33;100.00;101938.41;2095308;28;20075;-74
2022/12/18 01:27:52;;;;;;;10.75;3.78;;;;;;;16.32;100.00;101929.50;2099918;28;20068;-74
2022/12/18 01:29:15;;;;;;;9.68;3.25;;;;;;;16.32;100.00;101931.28;2094902;28;20045;-73
2022/12/18 01:30:36;;;;;;;7.65;3.20;;;;;;;16.34;100.00;101937.53;2094544;28;20060;-73
2022/12/18 01:31:59;;;;;;;10.05;3.60;;;;;;;16.35;100.00;101940.19;2105873;28;20044;-74
2022/12/18 01:33:22;;;;;;;8.93;2.75;;;;;;;16.37;100.00;101949.97;2097951;28;20040;-74
2022/12/18 01:34:45;;;;;;;9.63;3.42;;;;;;;16.39;100.00;101946.47;2103414;28;20056;-74
2022/12/18 01:36:07;;;;;;;12.27;3.30;;;;;;;16.39;100.00;101943.78;2094821;28;20072;-74
2022/12/18 01:37:30;;;;;;;11.40;3.00;;;;;;;16.39;100.00;101946.47;2087441;28;20139;-74
2022/12/18 01:38:55;;;;;;;9.73;3.38;;;;;;;16.39;100.00;101940.22;2091828;28;20114;-74
2022/12/18 01:40:16;;;;;;;8.68;2.58;;;;;;;16.36;100.00;101943.75;2108061;27;20087;-74
2022/12/18 01:43:19;;;;;;;9.88;2.80;;;;;;;16.33;100.00;101933.97;2105277;28;20101;-74
2022/12/18 01:45:07;;;;;;;8.90;3.15;;;;;;;16.33;100.00;101939.28;2103074;28;20036;-74
2022/12/18 01:46:29;;;;;;;8.70;3.00;;;;;;;16.33;100.00;101946.41;2097205;28;20603;-74
2022/12/18 01:47:53;;;;;;;11.05;2.80;;;;;;;16.34;100.00;101945.53;2089823;28;20076;-74
2022/12/18 01:49:15;;;;;;;7.05;2.72;;;;;;;16.32;100.00;101936.59;2100964;28;20091;-74
2022/12/18 01:50:41;;;;;;;10.20;3.67;;;;;;;16.32;100.00;101941.94;2094020;28;20097;-74
2022/12/18 01:52:02;;;;;;;8.68;3.08;;;;;;;16.31;100.00;101935.72;2095263;28;20045;-74
2022/12/18 01:53:25;;;;;;;12.32;3.30;;;;;;;16.30;100.00;101949.91;2091636;28;20040;-74
2022/12/18 01:54:50;;;;;;;8.98;2.50;;;;;;;16.29;100.00;101942.78;2092046;28;20053;-74
2022/12/18 01:56:18;;;;;;;9.38;2.83;;;;;;;16.29;100.00;101944.56;2094890;28;20040;-74
2022/12/18 01:57:41;;;;;;;9.13;2.88;;;;;;;16.28;100.00;101940.09;2098663;28;20048;-74
2022/12/18 01:59:07;;;;;;;11.45;3.45;;;;;;;16.26;100.00;101936.53;2101125;28;20040;-74
2022/12/18 02:00:28;;;;;;;15.68;3.35;;;;;;;16.26;100.00;101944.53;2106676;28;20081;-74
2022/12/18 02:01:51;;;;;;;12.60;3.15;;;;;;;16.26;100.00;101945.44;2106430;28;20047;-74
2022/12/18 02:03:13;;;;;;;15.00;3.80;;;;;;;16.26;100.00;101947.19;2101597;28;20385;-73
2022/12/18 02:04:35;;;;;;;8.30;2.72;;;;;;;16.26;100.00;101940.09;2083869;28;20044;-74
2022/12/18 02:06:04;;;;;;;11.88;3.15;;;;;;;16.26;100.00;101947.19;2099930;28;20081;-74
2022/12/18 02:07:34;;;;;;;10.32;3.10;;;;;;;16.26;100.00;101947.19;2103287;28;20056;-75
2022/12/18 02:09:06;;;;;;;17.33;3.97;;;;;;;16.26;100.00;101949.88;2097050;28;20128;-74
2022/12/18 02:10:36;;;;;;;13.40;3.43;;;;;;;16.24;100.00;101949.84;2105366;28;21931;-74
2022/12/18 02:12:06;;;;;;;10.38;3.25;;;;;;;16.22;100.00;101956.00;2096477;28;20285;-74
2022/12/18 02:13:36;;;;;;;12.15;3.35;;;;;;;16.19;100.00;101945.34;2095566;28;20056;-74
2022/12/18 02:15:08;;;;;;;10.27;3.45;;;;;;;16.18;100.00;101938.22;2106837;28;20508;-74
2022/12/18 02:16:43;;;;;;;9.68;3.03;;;;;;;16.17;100.00;101941.75;2103730;28;20568;-74
2022/12/18 02:18:11;;;;;;;12.90;3.53;;;;;;;16.20;100.00;101949.81;2102041;28;20444;-75
2022/12/18 02:19:48;;;;;;;18.60;3.47;;;;;;;16.21;100.00;101948.94;2099647;28;20036;-74
2022/12/18 02:21:21;;;;;;;10.90;3.10;;;;;;;16.21;100.00;101947.13;2104132;28;20055;-74
2022/12/18 02:22:55;;;;;;;9.82;3.65;;;;;;;16.22;100.00;101945.34;2116624;27;20039;-73
2022/12/18 02:24:30;;;;;;;12.23;3.88;;;;;;;16.23;100.00;101949.81;2108540;27;21631;-73
2022/12/18 02:26:05;;;;;;;11.35;3.47;;;;;;;16.22;100.00;101950.69;2088469;28;20048;-73
2022/12/18 02:27:31;;;;;;;12.80;3.83;;;;;;;16.21;100.00;101952.44;2112889;27;20043;-74
2022/12/18 02:28:56;;;;;;;8.75;3.08;;;;;;;16.23;100.00;101950.72;2093403;28;20056;-74
2022/12/18 02:30:19;;;;;;;12.55;3.38;;;;;;;16.23;100.00;101947.16;2092010;28;20056;-74
2022/12/18 02:31:46;;;;;;;11.23;3.35;;;;;;;16.23;100.00;101955.16;2101194;28;20055;-74
2022/12/18 02:33:12;;;;;;;9.65;3.15;;;;;;;16.21;100.00;101949.78;2096878;28;20420;-74
2022/12/18 02:34:37;;;;;;;8.43;2.72;;;;;;;16.18;100.00;101949.78;2087286;28;20693;-74
2022/12/18 02:36:03;;;;;;;10.57;3.25;;;;;;;16.17;100.00;101950.66;2094593;28;20048;-74
2022/12/18 02:37:27;;;;;;;9.50;3.50;;;;;;;16.16;100.00;101953.28;2097066;28;20044;-74
2022/12/18 02:38:53;;;;;;;11.10;3.03;;;;;;;16.14;100.00;101958.63;2083697;28;20099;-74
2022/12/18 02:40:19;;;;;;;8.75;3.15;;;;;;;16.13;100.00;101955.94;2103008;28;20082;-74
2022/12/18 02:41:43;;;;;;;11.68;3.10;;;;;;;16.13;100.00;101961.25;2103016;28;20102;-74
2022/12/18 02:43:08;;;;;;;6.07;2.47;;;;;;;16.11;100.00;101963.91;2106924;28;20035;-74
2022/12/18 02:44:30;;;;;;;12.75;3.80;;;;;;;16.11;100.00;101957.66;2101671;28;20120;-74
2022/12/18 02:45:54;;;;;;;12.63;3.67;;;;;;;16.09;100.00;101967.41;2096931;28;20033;-74
2022/12/18 02:47:21;;;;;;;10.05;3.20;;;;;;;16.07;100.00;101977.16;2093704;28;20101;-74
2022/12/18 02:48:43;;;;;;;8.05;3.08;;;;;;;16.04;100.00;101966.47;2084357;28;20052;-74
2022/12/18 02:50:17;;;;;;;8.32;2.83;;;;;;;16.03;100.00;101962.00;2105445;28;20074;-74
2022/12/18 02:51:48;;;;;;;15.77;3.88;;;;;;;15.99;100.00;101963.75;2101773;28;20508;-74
2022/12/18 02:53:18;;;;;;;14.88;3.55;;;;;;;15.99;100.00;101978.84;2110560;28;20047;-74
2022/12/18 02:54:59;;;;;;;7.38;3.15;;;;;;;15.95;100.00;101972.56;2093832;28;20932;-74
2022/12/18 02:56:29;;;;;;;7.30;3.00;;;;;;;15.92;100.00;101968.09;2096669;28;20061;-74
2022/12/18 02:57:58;;;;;;;11.80;3.58;;;;;;;15.91;100.00;101971.63;2095506;28;20063;-74
2022/12/18 02:59:30;;;;;;;8.35;3.55;;;;;;;15.90;100.00;101969.84;2095340;28;20056;-74
2022/12/18 03:01:01;;;;;;;7.28;3.00;;;;;;;15.89;100.00;101977.81;2088573;28;20051;-74
2022/12/18 03:02:33;;;;;;;9.68;3.67;;;;;;;15.87;100.00;101976.91;2096691;28;20044;-74
2022/12/18 03:03:59;;;;;;;14.85;3.67;;;;;;;15.87;100.00;101971.59;2094814;28;20052;-74
2022/12/18 03:05:27;;;;;;;12.57;3.85;;;;;;;15.88;100.00;101970.72;2102574;28;20039;-74
2022/12/18 03:06:51;;;;;;;12.75;3.53;;;;;;;15.87;100.00;101975.13;2101837;28;20055;-74
2022/12/18 03:08:18;;;;;;;7.65;3.25;;;;;;;15.89;100.00;101977.81;2098486;28;20436;-74
2022/12/18 03:09:46;;;;;;;15.68;4.40;;;;;;;15.89;100.00;101978.69;2101419;28;20492;-74
2022/12/18 03:11:12;;;;;;;12.07;4.00;;;;;;;15.89;100.00;101981.38;2094041;28;20052;-74
2022/12/18 03:12:37;;;;;;;10.35;2.92;;;;;;;15.92;100.00;101983.19;2117275;27;20085;-74
2022/12/18 03:14:03;;;;;;;12.07;4.35;;;;;;;15.94;100.00;101984.09;2101972;28;20477;-74
2022/12/18 03:15:30;;;;;;;11.35;3.83;;;;;;;15.94;100.00;101995.66;2086233;28;20041;-74
2022/12/18 03:17:05;;;;;;;13.90;4.13;;;;;;;15.93;100.00;101991.19;2095173;28;20064;-74
2022/12/18 03:18:33;;;;;;;9.05;3.65;;;;;;;15.92;100.00;101993.84;2102669;28;20085;-74
2022/12/18 03:19:58;;;;;;;15.07;3.53;;;;;;;15.91;100.00;101989.38;2089005;28;20057;-74
2022/12/18 03:21:24;;;;;;;9.05;3.78;;;;;;;15.91;100.00;101997.38;2108916;28;20415;-74
2022/12/18 03:22:51;;;;;;;9.60;3.47;;;;;;;15.90;100.00;101991.16;2101550;28;20048;-74
2022/12/18 03:24:16;;;;;;;15.35;3.80;;;;;;;15.91;100.00;101986.72;2099884;28;20036;-74
2022/12/18 03:25:42;;;;;;;13.50;3.90;;;;;;;15.90;100.00;101993.81;2090815;28;20052;-74
2022/12/18 03:27:08;;;;;;;11.43;4.07;;;;;;;15.90;100.00;101993.81;2108963;28;20048;-74
2022/12/18 03:28:33;;;;;;;12.50;3.40;;;;;;;15.88;100.00;101995.53;2100808;28;20800;-74
2022/12/18 03:30:07;;;;;;;11.95;4.07;;;;;;;15.89;100.00;101997.34;2108311;28;20052;-74
2022/12/18 03:31:33;;;;;;;13.52;4.40;;;;;;;15.89;100.00;101994.69;2101266;28;20039;-74
2022/12/18 03:33:06;;;;;;;10.98;3.15;;;;;;;15.87;100.00;101990.22;2092288;28;20443;-74
2022/12/18 03:34:32;;;;;;;11.30;3.53;;;;;;;15.87;100.00;101996.44;2101983;28;20075;-75
2022/12/18 03:35:57;;;;;;;12.77;3.78;;;;;;;15.85;100.00;101998.19;2104141;28;20463;-74
2022/12/18 03:37:19;;;;;;;13.25;3.22;;;;;;;15.84;100.00;101995.50;2102220;28;20100;-74
2022/12/18 03:38:41;;;;;;;11.68;3.20;;;;;;;15.83;100.00;101999.91;2106319;28;20047;-74
2022/12/18 03:40:05;;;;;;;15.85;3.85;;;;;;;15.81;100.00;101993.69;2099940;28;20043;-74
2022/12/18 03:41:34;;;;;;;9.07;2.92;;;;;;;15.81;100.00;101998.13;2100128;28;20145;-74
2022/12/18 03:43:29;;;;;;;13.77;3.38;;;;;;;15.78;100.00;101990.09;2096451;28;20064;-75
2022/12/18 03:44:59;;;;;;;13.27;3.80;;;;;;;15.78;100.00;101996.31;2094238;28;20082;-74
2022/12/18 03:46:30;;;;;;;10.85;3.35;;;;;;;15.78;100.00;102003.41;2101495;28;20060;-74
2022/12/18 03:48:01;;;;;;;9.88;3.30;;;;;;;15.78;100.00;102006.97;2106794;28;20035;-74
2022/12/18 03:49:36;;;;;;;11.20;3.72;;;;;;;15.77;100.00;102007.81;2088209;28;20061;-74
2022/12/18 03:51:04;;;;;;;9.63;3.78;;;;;;;15.77;100.00;102005.16;2093666;28;20446;-74
2022/12/18 03:52:31;;;;;;;8.77;3.45;;;;;;;15.77;100.00;102001.59;2086292;28;20142;-74
2022/12/18 03:53:59;;;;;;;10.95;3.65;;;;;;;15.78;100.00;102006.06;2104265;28;20039;-75
2022/12/18 03:55:29;;;;;;;10.00;3.72;;;;;;;15.77;100.00;101996.28;2093238;28;20131;-74
2022/12/18 03:56:59;;;;;;;8.38;3.80;;;;;;;15.77;100.00;102005.16;2103424;28;20048;-74
2022/12/18 03:58:26;;;;;;;14.07;3.88;;;;;;;15.76;100.00;102000.69;2094422;28;20554;-74
2022/12/18 04:00:00;;;;;;;6.47;3.05;;;;;;;15.72;100.00;102006.88;2097828;28;20135;-74
2022/12/18 04:01:41;;;;;;;10.43;3.15;;;;;;;15.72;100.00;102001.53;2103899;28;20043;-74
2022/12/18 04:03:05;;;;;;;14.07;3.50;;;;;;;15.71;100.00;102010.41;2101168;28;20056;-74
2022/12/18 04:04:36;;;;;;;8.75;3.25;;;;;;;15.68;100.00;101996.16;2098570;28;20050;-74
2022/12/18 04:06:00;;;;;;;11.13;3.67;;;;;;;15.68;100.00;102006.81;2102481;28;20151;-74
2022/12/18 04:07:24;;;;;;;9.60;3.30;;;;;;;15.68;100.00;102009.47;2097024;28;20055;-74
2022/12/18 04:08:46;;;;;;;11.65;4.18;;;;;;;15.69;100.00;102008.56;2091307;28;20041;-74
2022/12/18 04:10:14;;;;;;;11.40;3.65;;;;;;;15.69;100.00;102004.16;2094239;28;20044;-74
2022/12/18 04:11:37;;;;;;;9.00;3.15;;;;;;;15.68;100.00;102006.81;2093857;28;20045;-74
2022/12/18 04:13:00;;;;;;;12.70;4.50;;;;;;;15.66;100.00;102006.78;2096244;28;20049;-74
2022/12/18 04:14:23;;;;;;;20.38;8.93;;;;;;;15.67;100.00;102005.03;2091841;28;20044;-74
2022/12/18 04:15:48;;;;;;;24.20;12.00;;;;;;;15.66;100.00;102011.22;2099580;28;20052;-74
2022/12/18 04:17:12;;;;;;;;;;;;;;;15.61;100.00;102011.16;2097927;28;20090;-75
2022/12/18 04:18:34;;;;;;;24.80;17.55;;;;;;;15.61;100.00;102012.91;2101927;28;20342;-75
2022/12/18 04:19:57;;;;;;;28.23;20.45;;;;;;;15.60;100.00;102016.44;2091310;28;20036;-75
2022/12/18 04:21:20;;;;;;;28.67;21.42;;;;;;;15.58;100.00;102024.41;2090856;28;20143;-74
2022/12/18 04:22:43;;;;;;;33.15;26.20;;;;;;;15.58;100.00;102028.81;2096216;28;20143;-74
2022/12/18 04:24:05;;;;;;;44.28;38.10;;;;;;;15.52;100.00;102018.94;2085509;28;20045;-74
2022/12/18 04:25:29;;;;;;;33.42;29.73;;;;;;;15.41;100.00;102021.47;2094394;28;20101;-74
2022/12/18 04:27:08;;;;;;;29.52;26.42;;;;;;;15.22;100.00;102019.38;2094461;28;20040;-74
2022/12/18 04:28:37;;;;;;;23.13;19.17;;;;;;;15.02;100.00;102015.47;2092944;28;20064;-74
2022/12/18 04:30:00;;;;;;;28.27;20.83;;;;;;;14.88;100.00;102016.97;2094319;28;20047;-74
2022/12/18 04:31:23;;;;;;;31.38;23.38;;;;;;;14.83;100.00;102008.03;2090601;28;20492;-74
2022/12/18 04:32:46;;;;;;;29.58;22.65;;;;;;;14.85;100.00;102008.94;2091283;28;20412;-74
2022/12/18 04:34:09;;;;;;;30.60;19.77;;;;;;;14.88;100.00;102019.63;2103047;28;20557;-74
2022/12/18 04:35:36;;;;;;;21.05;16.85;;;;;;;14.87;100.00;102010.75;2100777;28;20158;-74
2022/12/18 04:36:59;;;;;;;22.20;16.33;;;;;;;14.86;100.00;102018.69;2099429;28;20048;-74
2022/12/18 04:38:21;;;;;;;39.45;30.05;;;;;;;14.83;100.00;102022.22;2093863;28;20480;-74
2022/12/18 04:39:52;;;;;;;37.00;30.88;;;;;;;14.83;100.00;102018.66;2084629;28;20036;-75
2022/12/18 04:41:25;;;;;;;40.70;34.47;;;;;;;14.84;100.00;102010.69;2094829;28;20052;-74
2022/12/18 04:42:48;;;;;;;47.67;41.45;;;;;;;14.87;100.00;102009.88;2099796;28;20085;-74
2022/12/18 04:44:11;;;;;;;44.95;37.03;;;;;;;14.92;100.00;102013.50;2109311;28;20047;-74
2022/12/18 04:45:32;;;;;;;58.08;43.55;;;;;;;14.94;100.00;102020.66;2108081;28;20040;-74
2022/12/18 04:46:55;;;;;;;;;;;;;;;14.86;100.00;102024.91;2085813;28;20513;-74
2022/12/18 04:48:18;;;;;;;;;;;;;;;14.77;100.00;102025.63;2107499;28;20392;-74
2022/12/18 04:49:40;;;;;;;;;;;;;;;14.72;100.00;102032.63;2109304;28;19930;-74
2022/12/18 04:51:01;;;;;;;61.67;55.00;;;;;;;14.71;100.00;102029.94;2100962;28;19920;-74
2022/12/18 04:52:24;;;;;;;108.57;93.53;;;;;;;14.73;100.00;102028.22;2093531;28;20532;-74
2022/12/18 04:53:45;;;;;;;111.03;95.30;;;;;;;14.77;100.00;102025.63;2098293;28;20048;-74
2022/12/18 04:55:08;;;;;;;68.90;54.50;;;;;;;14.82;100.00;102025.75;2101742;28;20036;-74
2022/12/18 04:56:32;;;;;;;42.75;34.40;;;;;;;14.85;100.00;102035.53;2102683;28;20916;-74
2022/12/18 04:57:54;;;;;;;37.85;29.73;;;;;;;14.83;100.00;102035.53;2113117;28;20059;-74
2022/12/18 04:59:16;;;;;;;30.30;22.10;;;;;;;14.82;100.00;102030.16;2102851;28;20051;-74
2022/12/18 05:00:37;;;;;;;48.17;40.33;;;;;;;14.83;100.00;102031.97;2104957;28;20093;-74
2022/12/18 05:02:00;;;;;;;79.47;58.35;;;;;;;14.85;100.00;102022.22;2105822;28;20173;-74
2022/12/18 05:03:22;;;;;;;56.80;42.40;;;;;;;14.88;100.00;102027.63;2108566;28;20055;-74
2022/12/18 05:04:45;;;;;;;57.90;45.17;;;;;;;14.92;100.00;102026.78;2095087;28;20622;-74
2022/12/18 05:06:07;;;;;;;65.28;57.75;;;;;;;14.95;100.00;102021.53;2109832;28;20469;-74
2022/12/18 05:07:29;;;;;;;82.53;71.50;;;;;;;14.98;100.00;102030.47;2101929;28;20074;-74
2022/12/18 05:08:51;;;;;;;82.93;72.93;;;;;;;15.00;100.00;102033.16;2099787;28;20040;-74
2022/12/18 05:10:13;;;;;;;86.28;76.95;;;;;;;15.02;100.00;102032.31;2106044;28;20168;-74
2022/12/18 05:11:38;;;;;;;80.20;69.93;;;;;;;15.03;100.00;102028.75;2107670;28;20043;-74
2022/12/18 05:12:59;;;;;;;73.30;61.03;;;;;;;15.02;100.00;102024.34;2103846;28;20040;-74
2022/12/18 05:14:22;;;;;;;39.38;32.22;;;;;;;15.04;100.00;102032.31;2106861;28;20134;-75
2022/12/18 05:15:51;;;;;;;38.00;32.25;;;;;;;15.06;100.00;102028.84;2102082;28;20040;-74
2022/12/18 05:17:14;;;;;;;39.70;30.95;;;;;;;15.06;100.00;102031.50;2103919;28;20460;-74
2022/12/18 05:18:37;;;;;;;25.63;18.73;;;;;;;15.09;100.00;102033.31;2103363;28;20526;-73
2022/12/18 05:20:00;;;;;;;32.72;20.63;;;;;;;15.07;100.00;102030.63;2095074;28;20479;-74
2022/12/18 05:21:21;;;;;;;54.40;47.92;;;;;;;15.07;100.00;102027.97;2095853;28;20045;-75
2022/12/18 05:22:43;;;;;;;67.57;60.30;;;;;;;15.09;100.00;102039.53;2102456;28;20132;-74
2022/12/18 05:24:05;;;;;;;65.35;58.00;;;;;;;15.10;100.00;102029.78;2105721;28;20162;-74
2022/12/18 05:25:27;;;;;;;53.92;48.17;;;;;;;15.07;100.00;102035.94;2103340;28;20079;-74
2022/12/18 05:26:50;;;;;;;70.47;62.78;;;;;;;15.06;100.00;102034.16;2102919;28;20394;-74
2022/12/18 05:28:11;;;;;;;68.30;59.78;;;;;;;15.05;100.00;102037.69;2108517;28;20055;-74
2022/12/18 05:29:34;;;;;;;73.25;65.35;;;;;;;15.03;100.00;102028.75;2104562;28;20059;-74
2022/12/18 05:30:57;;;;;;;124.30;111.00;;;;;;;15.01;100.00;102041.16;2102730;28;20078;-74
2022/12/18 05:32:19;;;;;;;123.40;110.38;;;;;;;15.00;100.00;102041.13;2094901;28;20131;-74
2022/12/18 05:33:44;;;;;;;95.88;85.85;;;;;;;15.00;100.00;102039.38;2087994;28;20045;-74
2022/12/18 05:35:08;;;;;;;76.93;67.70;;;;;;;14.97;100.00;102039.28;2092561;28;20049;-75
2022/12/18 05:36:30;;;;;;;96.53;86.55;;;;;;;14.93;100.00;102034.81;2088645;28;20761;-74
2022/12/18 05:37:51;;;;;;;110.78;98.90;;;;;;;14.93;100.00;102042.78;2092049;28;20048;-74
2022/12/18 05:39:14;;;;;;;103.97;92.88;;;;;;;14.97;100.00;102044.63;2094183;28;20068;-74
2022/12/18 05:40:36;;;;;;;95.57;85.43;;;;;;;15.01;100.00;102034.94;2100083;28;20040;-75
2022/12/18 05:41:58;;;;;;;95.03;85.28;;;;;;;15.03;100.00;102042.06;2101943;28;20056;-74
2022/12/18 05:43:21;;;;;;;124.35;111.38;;;;;;;15.04;100.00;102046.53;2093896;28;20044;-74
2022/12/18 05:44:45;;;;;;;64.53;57.50;;;;;;;15.03;100.00;102058.03;2099761;28;20549;-74
2022/12/18 05:46:07;;;;;;;67.03;60.10;;;;;;;14.99;100.00;102048.22;2111260;28;20454;-73
2022/12/18 05:47:30;;;;;;;110.07;98.00;;;;;;;14.97;100.00;102047.28;2089315;28;20574;-74
2022/12/18 05:48:54;;;;;;;82.72;73.82;;;;;;;14.97;100.00;102039.28;2100065;27;20591;-74
2022/12/18 05:50:17;;;;;;;83.68;74.95;;;;;;;14.99;100.00;102047.31;2089194;28;20568;-74
2022/12/18 05:51:38;;;;;;;118.10;105.55;;;;;;;14.98;100.00;102046.41;2102532;28;20113;-74
2022/12/18 05:53:00;;;;;;;80.50;71.80;;;;;;;14.98;100.00;102049.06;2105633;28;20105;-74
2022/12/18 05:54:22;;;;;;;72.63;64.38;;;;;;;14.99;100.00;102052.63;2106487;28;20506;-74
2022/12/18 05:55:44;;;;;;;214.38;191.55;;;;;;;14.98;100.00;102056.16;2097083;28;20041;-74
2022/12/18 05:57:07;;;;;;;191.05;171.00;;;;;;;15.01;100.00;102059.78;2100406;28;20066;-74
2022/12/18 05:58:29;;;;;;;157.93;141.45;;;;;;;15.07;100.00;102048.34;2105686;28;20155;-74
2022/12/18 05:59:51;;;;;;;;;;;;;;;15.03;100.00;102058.03;2114171;27;20032;-74
2022/12/18 06:01:16;;;;;;;133.40;119.65;;;;;;;15.06;100.00;102055.44;2103785;28;20439;-74
2022/12/18 06:02:37;;;;;;;111.38;99.90;;;;;;;15.10;100.00;102057.28;2109617;28;20047;-74
2022/12/18 06:04:02;;;;;;;118.20;105.90;;;;;;;15.16;100.00;102057.38;2099260;28;20040;-74
2022/12/18 06:05:23;;;;;;;84.40;75.53;;;;;;;15.20;100.00;102061.00;2086194;28;20413;-74
2022/12/18 06:06:46;;;;;;;66.80;57.22;;;;;;;15.23;100.00;102057.50;2099447;28;20136;-74
2022/12/18 06:08:07;;;;;;;68.00;59.90;;;;;;;15.27;100.00;102062.91;2094646;28;20044;-75
2022/12/18 06:09:31;;;;;;;68.95;60.20;;;;;;;15.30;100.00;102060.28;2116904;27;20555;-75
2022/12/18 06:10:53;;;;;;;109.53;98.43;;;;;;;15.34;100.00;102062.13;2097346;28;20102;-74
2022/12/18 06:12:15;;;;;;;118.47;106.38;;;;;;;15.36;100.00;102060.38;2099000;28;20055;-74
2022/12/18 06:13:39;;;;;;;111.93;99.82;;;;;;;15.38;100.00;102063.06;2100788;28;20139;-75
2022/12/18 06:15:02;;;;;;;114.63;102.53;;;;;;;15.40;100.00;102062.25;2106769;28;20071;-75
2022/12/18 06:16:23;;;;;;;107.63;95.90;;;;;;;15.43;100.00;102067.59;2104994;28;20380;-75
2022/12/18 06:17:45;;;;;;;83.93;72.70;;;;;;;15.49;100.00;102070.34;2100698;28;20051;-75
2022/12/18 06:19:08;;;;;;;91.88;82.07;;;;;;;15.62;100.00;102076.81;2105077;28;20043;-75
2022/12/18 06:20:33;;;;;;;84.75;75.63;;;;;;;15.78;100.00;102083.28;2100508;28;20096;-75
2022/12/18 06:21:57;;;;;;;74.85;66.72;;;;;;;15.94;100.00;102082.66;2103124;28;20071;-75
2022/12/18 06:23:19;;;;;;;70.47;63.15;;;;;;;16.14;100.00;102093.59;2094853;28;20614;-75
2022/12/18 06:24:42;;;;;;;54.78;48.85;;;;;;;16.31;100.00;102092.06;2104550;28;20704;-75
2022/12/18 06:26:07;;;;;;;48.78;40.85;;;;;;;16.48;100.00;102101.16;2103825;28;20058;-75
2022/12/18 06:27:29;;;;;;;39.65;35.35;;;;;;;16.64;100.00;102099.63;2106855;28;20174;-75
2022/12/18 06:28:50;;;;;;;35.70;30.90;;;;;;;16.79;100.00;102094.47;2098349;28;20048;-75